Time;durP1;ratioP1;P1;durP2;ratioP2;P2;SDS_P1;SDS_P2;PMS_P1;PMS_P2;Temp;Humidity;BMP_temperature;BMP_pressure;BME280_temperature;BME280_humidity;BME280_pressure;Samples;Min_cycle;Max_cycle;Signal;HPM_P1;HPM_P2
2021/04/06 00:00:31;;;;;;;22.77;21.38;;;;;;;;;;5073958;28;20214;-72
2021/04/06 00:03:00;;;;;;;23.40;21.88;;;;;;;;;;5073639;28;20191;-72
2021/04/06 00:05:27;;;;;;;23.50;21.90;;;;;;;;;;5073702;28;20737;-71
2021/04/06 00:07:55;;;;;;;23.48;22.08;;;;;;;;;;5073791;28;20196;-74
2021/04/06 00:10:25;;;;;;;23.40;21.77;;;;;;;;;;5073741;28;20638;-74
2021/04/06 00:12:53;;;;;;;24.10;22.25;;;;;;;;;;5073717;28;20199;-72
2021/04/06 00:15:22;;;;;;;22.15;20.95;;;;;;;;;;5073908;28;20188;-72
2021/04/06 00:17:50;;;;;;;21.92;20.63;;;;;;;;;;5073913;28;20216;-72
2021/04/06 00:20:20;;;;;;;23.23;21.63;;;;;;;;;;5073660;28;20252;-72
2021/04/06 00:22:47;;;;;;;21.85;20.63;;;;;;;;;;5074006;28;20530;-71
2021/04/06 00:25:18;;;;;;;21.00;19.90;;;;;;;;;;5073843;28;20223;-72
2021/04/06 00:27:46;;;;;;;22.10;20.75;;;;;;;;;;5073848;28;20196;-71
2021/04/06 00:30:16;;;;;;;21.40;20.17;;;;;;;;;;5073947;28;20188;-70
2021/04/06 00:32:44;;;;;;;24.52;22.83;;;;;;;;;;5073778;28;20574;-71
2021/04/06 00:35:11;;;;;;;22.67;21.10;;;;;;;;;;5073825;28;20210;-71
2021/04/06 00:37:44;;;;;;;21.30;20.05;;;;;;;;;;5073431;28;20202;-71
2021/04/06 00:40:12;;;;;;;22.15;20.92;;;;;;;;;;5073601;28;20561;-71
2021/04/06 00:42:40;;;;;;;22.50;20.67;;;;;;;;;;5073451;28;20187;-71
2021/04/06 00:45:10;;;;;;;22.00;20.85;;;;;;;;;;5073334;28;20247;-71
2021/04/06 00:47:37;;;;;;;22.85;21.25;;;;;;;;;;5073591;28;20203;-71
2021/04/06 00:50:05;;;;;;;23.10;21.25;;;;;;;;;;5073335;28;20188;-71
2021/04/06 00:52:32;;;;;;;21.60;20.50;;;;;;;;;;5073615;28;20555;-71
2021/04/06 00:55:00;;;;;;;23.85;22.23;;;;;;;;;;5073125;28;20346;-71
2021/04/06 00:57:28;;;;;;;22.70;21.30;;;;;;;;;;5073423;28;20192;-71
2021/04/06 01:00:28;;;;;;;23.10;21.40;;;;;;;;;;5073607;28;20189;-71
2021/04/06 01:03:04;;;;;;;23.90;22.00;;;;;;;;;;5011583;28;20190;-71
2021/04/06 01:05:32;;;;;;;22.83;21.05;;;;;;;;;;5011414;28;20229;-70
2021/04/06 01:08:00;;;;;;;23.30;21.85;;;;;;;;;;5011545;28;20648;-71
2021/04/06 01:10:28;;;;;;;24.15;22.30;;;;;;;;;;5011439;28;20198;-71
2021/04/06 01:12:56;;;;;;;22.88;21.65;;;;;;;;;;5011466;28;20271;-72
2021/04/06 01:15:23;;;;;;;22.50;21.15;;;;;;;;;;5015132;28;20275;-72
2021/04/06 01:17:50;;;;;;;22.67;21.48;;;;;;;;;;4999020;28;20195;-71
2021/04/06 01:20:19;;;;;;;22.63;21.42;;;;;;;;;;5015166;28;20201;-71
2021/04/06 01:22:46;;;;;;;22.55;21.25;;;;;;;;;;4999059;28;20194;-71
2021/04/06 01:25:19;;;;;;;22.42;20.85;;;;;;;;;;5015040;28;20225;-71
2021/04/06 01:27:46;;;;;;;22.48;21.17;;;;;;;;;;5014859;28;20214;-72
2021/04/06 01:30:15;;;;;;;22.77;21.48;;;;;;;;;;5015038;28;20226;-71
2021/04/06 01:32:43;;;;;;;23.42;21.88;;;;;;;;;;5018959;28;20230;-71
2021/04/06 01:35:10;;;;;;;22.63;21.33;;;;;;;;;;5076972;28;20184;-71
2021/04/06 01:37:37;;;;;;;22.88;21.48;;;;;;;;;;5076488;28;20645;-71
2021/04/06 01:40:05;;;;;;;22.95;21.55;;;;;;;;;;5076552;28;20203;-71
2021/04/06 01:42:36;;;;;;;24.65;22.20;;;;;;;;;;5076516;28;20184;-71
2021/04/06 01:45:05;;;;;;;28.73;27.08;;;;;;;;;;5076686;28;20219;-71
2021/04/06 01:47:32;;;;;;;26.40;24.80;;;;;;;;;;5076358;28;20199;-71
2021/04/06 01:49:59;;;;;;;26.42;24.67;;;;;;;;;;5075393;28;20200;-71
2021/04/06 01:52:27;;;;;;;26.35;24.50;;;;;;;;;;5076670;28;20305;-72
2021/04/06 01:54:57;;;;;;;25.90;24.20;;;;;;;;;;5076111;28;20231;-71
2021/04/06 01:57:28;;;;;;;26.85;25.15;;;;;;;;;;5076081;28;20234;-71
2021/04/06 01:59:59;;;;;;;26.02;24.52;;;;;;;;;;5076174;28;20654;-71
2021/04/06 02:02:26;;;;;;;26.38;24.70;;;;;;;;;;5076463;28;20520;-71
2021/04/06 02:04:57;;;;;;;26.88;25.08;;;;;;;;;;5076384;28;20219;-70
2021/04/06 02:07:25;;;;;;;26.50;24.90;;;;;;;;;;5076307;28;20184;-71
2021/04/06 02:09:52;;;;;;;26.15;24.40;;;;;;;;;;5076084;28;20183;-71
2021/04/06 02:12:20;;;;;;;27.52;25.70;;;;;;;;;;5076280;28;20249;-71
2021/04/06 02:14:47;;;;;;;26.80;25.10;;;;;;;;;;5076279;28;20226;-71
2021/04/06 02:17:15;;;;;;;27.30;25.38;;;;;;;;;;5076117;28;20187;-71
2021/04/06 02:19:43;;;;;;;27.20;25.27;;;;;;;;;;5076182;28;20188;-71
2021/04/06 02:22:10;;;;;;;27.10;25.27;;;;;;;;;;5076121;28;20195;-71
2021/04/06 02:24:39;;;;;;;26.23;24.52;;;;;;;;;;5074716;28;20769;-71
2021/04/06 02:27:07;;;;;;;27.90;25.75;;;;;;;;;;5075902;28;20188;-71
2021/04/06 02:29:38;;;;;;;26.63;24.73;;;;;;;;;;5075949;28;20241;-71
2021/04/06 02:32:11;;;;;;;27.25;25.52;;;;;;;;;;5075603;28;20224;-71
2021/04/06 02:34:40;;;;;;;26.08;24.48;;;;;;;;;;5074575;28;20206;-71
2021/04/06 02:37:07;;;;;;;26.58;25.00;;;;;;;;;;5075758;28;20199;-71
2021/04/06 02:39:38;;;;;;;25.02;23.63;;;;;;;;;;5075858;28;20187;-71
2021/04/06 02:42:18;;;;;;;25.80;23.98;;;;;;;;;;5075752;28;20276;-71
2021/04/06 02:44:44;;;;;;;25.95;23.77;;;;;;;;;;5075651;28;20231;-71
2021/04/06 02:47:11;;;;;;;26.02;24.52;;;;;;;;;;5075322;28;20195;-71
2021/04/06 02:49:40;;;;;;;25.48;24.00;;;;;;;;;;5074329;28;20257;-71
2021/04/06 02:52:07;;;;;;;25.73;24.13;;;;;;;;;;5075564;28;20237;-72
2021/04/06 02:54:34;;;;;;;27.90;25.75;;;;;;;;;;5074980;28;20235;-71
2021/04/06 02:57:01;;;;;;;25.27;23.48;;;;;;;;;;5075294;28;20192;-71
2021/04/06 02:59:28;;;;;;;25.30;23.75;;;;;;;;;;5075106;28;20656;-72
2021/04/06 03:01:59;;;;;;;25.05;23.55;;;;;;;;;;5075129;28;20184;-71
2021/04/06 03:04:27;;;;;;;24.20;22.88;;;;;;;;;;5075079;28;20227;-71
2021/04/06 03:06:55;;;;;;;24.77;23.38;;;;;;;;;;5074888;28;20196;-71
2021/04/06 03:09:22;;;;;;;25.05;23.65;;;;;;;;;;5075179;28;20184;-71
2021/04/06 03:11:50;;;;;;;24.08;22.63;;;;;;;;;;5075118;28;20187;-71
2021/04/06 03:14:20;;;;;;;24.42;23.02;;;;;;;;;;5075606;28;20207;-71
2021/04/06 03:16:48;;;;;;;25.25;23.45;;;;;;;;;;5074728;28;20190;-72
2021/04/06 03:19:15;;;;;;;24.45;23.05;;;;;;;;;;5074615;28;20188;-70
2021/04/06 03:21:42;;;;;;;25.48;23.95;;;;;;;;;;5074998;28;20199;-71
2021/04/06 03:24:10;;;;;;;23.98;22.63;;;;;;;;;;5074788;28;20212;-71
2021/04/06 03:26:37;;;;;;;23.63;22.27;;;;;;;;;;5074330;28;20184;-71
2021/04/06 03:29:05;;;;;;;24.02;22.33;;;;;;;;;;5074856;28;20219;-71
2021/04/06 03:31:33;;;;;;;24.52;22.92;;;;;;;;;;5074563;28;20634;-72
2021/04/06 03:34:01;;;;;;;25.05;23.45;;;;;;;;;;5074804;28;20199;-71
2021/04/06 03:36:29;;;;;;;25.30;23.70;;;;;;;;;;5073829;28;20270;-72
2021/04/06 03:38:56;;;;;;;24.30;22.80;;;;;;;;;;5074632;28;20187;-71
2021/04/06 03:41:25;;;;;;;25.17;23.67;;;;;;;;;;5074257;28;20188;-71
2021/04/06 03:43:52;;;;;;;24.15;22.75;;;;;;;;;;5074118;28;20223;-71
2021/04/06 03:46:24;;;;;;;25.10;23.52;;;;;;;;;;5074136;28;20664;-71
2021/04/06 03:48:51;;;;;;;24.30;23.00;;;;;;;;;;5073776;28;20226;-71
2021/04/06 03:51:26;;;;;;;23.55;22.15;;;;;;;;;;5074603;28;20203;-71
2021/04/06 03:53:52;;;;;;;24.85;23.40;;;;;;;;;;5074021;28;20292;-71
2021/04/06 03:56:20;;;;;;;23.55;22.25;;;;;;;;;;5073981;28;20613;-71
2021/04/06 03:58:54;;;;;;;24.10;22.80;;;;;;;;;;5074231;28;20191;-71
2021/04/06 04:01:21;;;;;;;23.67;22.27;;;;;;;;;;5073931;28;20308;-71
2021/04/06 04:03:47;;;;;;;24.35;22.50;;;;;;;;;;5074496;28;20207;-71
2021/04/06 04:06:23;;;;;;;23.95;22.17;;;;;;;;;;5072812;28;20218;-71
2021/04/06 04:08:50;;;;;;;23.45;22.15;;;;;;;;;;5073508;28;20203;-72
2021/04/06 04:11:17;;;;;;;23.83;22.52;;;;;;;;;;5074068;28;20194;-72
2021/04/06 04:13:43;;;;;;;23.38;21.85;;;;;;;;;;5074044;28;20187;-71
2021/04/06 04:16:11;;;;;;;23.67;22.05;;;;;;;;;;5073933;28;20210;-71
2021/04/06 04:18:38;;;;;;;23.80;22.38;;;;;;;;;;5073726;28;20199;-71
2021/04/06 04:21:05;;;;;;;23.48;21.98;;;;;;;;;;5073736;28;20672;-71
2021/04/06 04:23:33;;;;;;;23.67;22.08;;;;;;;;;;5073650;28;20187;-71
2021/04/06 04:25:59;;;;;;;24.08;22.77;;;;;;;;;;5073593;28;20596;-72
2021/04/06 04:28:26;;;;;;;24.80;23.20;;;;;;;;;;5073737;28;20203;-71
2021/04/06 04:30:54;;;;;;;23.95;22.40;;;;;;;;;;5073498;28;20220;-70
2021/04/06 04:33:21;;;;;;;24.15;22.65;;;;;;;;;;5073484;28;20194;-71
2021/04/06 04:35:48;;;;;;;25.63;23.60;;;;;;;;;;5073707;28;20211;-72
2021/04/06 04:38:15;;;;;;;24.73;23.23;;;;;;;;;;5072666;28;20534;-71
2021/04/06 04:40:44;;;;;;;23.30;21.73;;;;;;;;;;5073750;28;20233;-71
2021/04/06 04:43:11;;;;;;;23.98;22.23;;;;;;;;;;5073778;28;20564;-71
2021/04/06 04:45:38;;;;;;;23.45;22.15;;;;;;;;;;5073285;28;20262;-71
2021/04/06 04:48:05;;;;;;;24.30;22.35;;;;;;;;;;5073889;28;20192;-71
2021/04/06 04:50:34;;;;;;;24.42;22.73;;;;;;;;;;5077844;28;20195;-71
2021/04/06 04:53:01;;;;;;;24.15;22.38;;;;;;;;;;5077813;28;20238;-71
2021/04/06 04:55:28;;;;;;;22.58;21.17;;;;;;;;;;5077268;28;20319;-71
2021/04/06 04:57:55;;;;;;;24.35;22.50;;;;;;;;;;5077243;28;20192;-71
2021/04/06 05:00:22;;;;;;;24.60;22.88;;;;;;;;;;5077660;28;20293;-71
2021/04/06 05:02:49;;;;;;;24.00;22.40;;;;;;;;;;5077274;28;20213;-71
2021/04/06 05:05:17;;;;;;;24.40;22.83;;;;;;;;;;5077408;28;20211;-71
2021/04/06 05:07:45;;;;;;;24.38;22.85;;;;;;;;;;5077492;28;20200;-71
2021/04/06 05:10:12;;;;;;;23.50;22.20;;;;;;;;;;5077174;28;20192;-72
2021/04/06 05:12:39;;;;;;;24.27;22.20;;;;;;;;;;5077113;28;20192;-71
2021/04/06 05:15:07;;;;;;;24.45;22.75;;;;;;;;;;5076823;28;20200;-71
2021/04/06 05:17:34;;;;;;;24.95;22.95;;;;;;;;;;5076972;28;20707;-72
2021/04/06 05:20:01;;;;;;;23.95;22.55;;;;;;;;;;5077283;28;20187;-71
2021/04/06 05:22:28;;;;;;;24.15;22.48;;;;;;;;;;5077167;28;20184;-71
2021/04/06 05:24:56;;;;;;;23.73;22.17;;;;;;;;;;5077135;28;20215;-72
2021/04/06 05:27:22;;;;;;;22.23;20.92;;;;;;;;;;5077070;28;20544;-71
2021/04/06 05:29:49;;;;;;;23.98;22.52;;;;;;;;;;5077169;28;20264;-71
2021/04/06 05:32:16;;;;;;;24.50;23.05;;;;;;;;;;5076981;28;20219;-71
2021/04/06 05:34:43;;;;;;;24.90;22.90;;;;;;;;;;5077000;28;20225;-71
2021/04/06 05:37:10;;;;;;;25.70;23.90;;;;;;;;;;5076913;28;20200;-71
2021/04/06 05:39:37;;;;;;;23.92;22.52;;;;;;;;;;5076566;28;20199;-71
2021/04/06 05:42:05;;;;;;;23.70;22.20;;;;;;;;;;5076626;28;20188;-71
2021/04/06 05:44:32;;;;;;;23.60;22.05;;;;;;;;;;5076164;28;20215;-70
2021/04/06 05:47:01;;;;;;;23.02;21.75;;;;;;;;;;5076392;28;20188;-71
2021/04/06 05:49:31;;;;;;;24.25;22.45;;;;;;;;;;5076454;28;20626;-71
2021/04/06 05:51:58;;;;;;;23.90;22.20;;;;;;;;;;5076627;28;20187;-71
2021/04/06 05:54:26;;;;;;;25.08;23.42;;;;;;;;;;5076130;28;20231;-71
2021/04/06 05:56:53;;;;;;;24.75;22.75;;;;;;;;;;5076427;28;20184;-71
2021/04/06 05:59:21;;;;;;;23.02;21.63;;;;;;;;;;5075783;28;20218;-71
2021/04/06 06:01:48;;;;;;;25.25;23.48;;;;;;;;;;5076103;28;20585;-71
2021/04/06 06:04:15;;;;;;;23.63;22.13;;;;;;;;;;5075787;28;20227;-71
2021/04/06 06:06:42;;;;;;;25.02;23.25;;;;;;;;;;5076408;28;20202;-71
2021/04/06 06:09:11;;;;;;;23.70;22.27;;;;;;;;;;5076368;28;20541;-71
2021/04/06 06:11:53;;;;;;;24.17;22.60;;;;;;;;;;5076022;28;20223;-71
2021/04/06 06:14:27;;;;;;;25.85;24.15;;;;;;;;;;5076100;28;20207;-71
2021/04/06 06:16:54;;;;;;;25.42;23.33;;;;;;;;;;5075873;28;20183;-71
2021/04/06 06:19:21;;;;;;;24.08;22.52;;;;;;;;;;5075904;28;20206;-71
2021/04/06 06:21:49;;;;;;;24.90;23.20;;;;;;;;;;5074882;28;20650;-71
2021/04/06 06:24:23;;;;;;;24.67;23.15;;;;;;;;;;5076051;28;20212;-71
2021/04/06 06:26:50;;;;;;;26.00;23.90;;;;;;;;;;5075835;28;20187;-70
2021/04/06 06:29:19;;;;;;;25.70;23.10;;;;;;;;;;5075718;28;20200;-71
2021/04/06 06:31:48;;;;;;;24.17;22.40;;;;;;;;;;5075459;28;20215;-71
2021/04/06 06:34:28;;;;;;;25.00;23.10;;;;;;;;;;5075622;28;20198;-71
2021/04/06 06:37:02;;;;;;;24.50;22.85;;;;;;;;;;5075829;28;20214;-71
2021/04/06 06:39:29;;;;;;;25.10;23.50;;;;;;;;;;5075488;28;20630;-71
2021/04/06 06:42:00;;;;;;;26.42;24.33;;;;;;;;;;5076086;28;20203;-71
2021/04/06 06:44:27;;;;;;;25.95;24.00;;;;;;;;;;5075681;28;20215;-71
2021/04/06 06:47:08;;;;;;;26.77;24.38;;;;;;;;;;5075593;28;20192;-71
2021/04/06 06:49:37;;;;;;;24.55;22.83;;;;;;;;;;5075305;28;20187;-71
2021/04/06 06:52:05;;;;;;;25.48;23.67;;;;;;;;;;5075301;28;20188;-71
2021/04/06 06:54:36;;;;;;;24.48;23.00;;;;;;;;;;5075129;28;20242;-70
2021/04/06 06:57:10;;;;;;;24.88;23.08;;;;;;;;;;5075320;28;20646;-70
2021/04/06 06:59:37;;;;;;;25.75;23.90;;;;;;;;;;5075442;28;20196;-71
2021/04/06 07:02:25;;;;;;;26.20;24.17;;;;;;;;;;5073940;28;20282;-71
2021/04/06 07:04:52;;;;;;;24.75;23.15;;;;;;;;;;5075257;28;20219;-71
2021/04/06 07:07:19;;;;;;;24.42;22.80;;;;;;;;;;5074825;28;20204;-71
2021/04/06 07:09:48;;;;;;;26.45;24.45;;;;;;;;;;5074943;28;20279;-70
2021/04/06 07:12:15;;;;;;;26.05;24.13;;;;;;;;;;5074274;28;20207;-70
2021/04/06 07:14:43;;;;;;;25.65;23.23;;;;;;;;;;5074404;28;20203;-70
2021/04/06 07:17:10;;;;;;;25.15;23.20;;;;;;;;;;5075144;28;20217;-71
2021/04/06 07:19:40;;;;;;;26.30;23.92;;;;;;;;;;5073853;28;20220;-71
2021/04/06 07:22:08;;;;;;;24.15;22.35;;;;;;;;;;5074659;28;20233;-71
2021/04/06 07:24:36;;;;;;;25.67;23.02;;;;;;;;;;5074807;28;20217;-71
2021/04/06 07:27:07;;;;;;;25.95;23.75;;;;;;;;;;5074749;28;20192;-71
2021/04/06 07:29:34;;;;;;;25.10;22.85;;;;;;;;;;5074852;28;20188;-72
2021/04/06 07:32:01;;;;;;;23.58;21.92;;;;;;;;;;5074529;28;20598;-71
2021/04/06 07:34:28;;;;;;;25.70;23.27;;;;;;;;;;5074671;28;20199;-71
2021/04/06 07:36:56;;;;;;;25.58;23.70;;;;;;;;;;5074362;28;20703;-78
2021/04/06 07:39:25;;;;;;;26.38;23.67;;;;;;;;;;5074348;28;20199;-71
2021/04/06 07:41:52;;;;;;;25.63;23.65;;;;;;;;;;5074396;28;20200;-71
2021/04/06 07:44:19;;;;;;;24.75;22.95;;;;;;;;;;5074234;28;20212;-70
2021/04/06 07:46:47;;;;;;;24.52;22.95;;;;;;;;;;5074146;28;20680;-70
2021/04/06 07:49:33;;;;;;;25.08;22.88;;;;;;;;;;5074146;28;20197;-71
2021/04/06 07:52:02;;;;;;;24.70;22.58;;;;;;;;;;5074286;28;20187;-71
2021/04/06 07:54:43;;;;;;;23.58;21.65;;;;;;;;;;5074014;28;20235;-70
2021/04/06 07:57:10;;;;;;;24.17;22.23;;;;;;;;;;5074124;28;20195;-71
2021/04/06 08:00:01;;;;;;;23.85;22.13;;;;;;;;;;5073943;28;20191;-71
2021/04/06 08:02:31;;;;;;;22.52;20.65;;;;;;;;;;5059461;28;20633;-71
2021/04/06 08:04:59;;;;;;;22.25;20.60;;;;;;;;;;5073810;28;20693;-71
2021/04/06 08:07:27;;;;;;;22.92;20.90;;;;;;;;;;5074115;28;20184;-71
2021/04/06 08:09:54;;;;;;;25.45;22.50;;;;;;;;;;5074144;28;20184;-71
2021/04/06 08:12:22;;;;;;;22.10;20.30;;;;;;;;;;5073774;28;20593;-71
2021/04/06 08:14:50;;;;;;;23.35;21.00;;;;;;;;;;5073886;28;20211;-71
2021/04/06 08:17:35;;;;;;;21.77;20.13;;;;;;;;;;5073692;28;20199;-71
2021/04/06 08:20:06;;;;;;;21.13;19.77;;;;;;;;;;5073684;28;20191;-71
2021/04/06 08:22:46;;;;;;;21.92;20.08;;;;;;;;;;5072407;28;20201;-71
2021/04/06 08:25:31;;;;;;;21.23;19.48;;;;;;;;;;5073565;28;20270;-70
2021/04/06 08:27:59;;;;;;;23.17;21.25;;;;;;;;;;5073790;28;20194;-70
2021/04/06 08:30:26;;;;;;;20.83;19.23;;;;;;;;;;5074264;28;20200;-71
2021/04/06 08:33:12;;;;;;;22.13;20.02;;;;;;;;;;5074162;28;20199;-70
2021/04/06 08:35:57;;;;;;;21.50;20.17;;;;;;;;;;5073800;28;20196;-70
2021/04/06 08:38:43;;;;;;;21.75;19.70;;;;;;;;;;5073522;28;20188;-70
2021/04/06 08:41:12;;;;;;;21.50;19.80;;;;;;;;;;5073755;28;20192;-70
2021/04/06 08:43:40;;;;;;;21.27;19.58;;;;;;;;;;5074444;28;20600;-70
2021/04/06 08:46:08;;;;;;;23.63;21.30;;;;;;;;;;5073332;28;20224;-71
2021/04/06 08:48:48;;;;;;;21.70;20.05;;;;;;;;;;5073652;28;20192;-70
2021/04/06 08:51:19;;;;;;;22.58;20.80;;;;;;;;;;5073719;28;20187;-71
2021/04/06 08:53:47;;;;;;;22.33;20.42;;;;;;;;;;5073384;28;20697;-70
2021/04/06 08:56:14;;;;;;;23.05;21.00;;;;;;;;;;5073166;28;20194;-70
2021/04/06 08:58:41;;;;;;;22.27;20.45;;;;;;;;;;5073328;28;20203;-71
2021/04/06 09:01:08;;;;;;;22.38;20.60;;;;;;;;;;5073264;28;20205;-70
2021/04/06 09:03:35;;;;;;;21.63;19.88;;;;;;;;;;5073540;28;20189;-70
2021/04/06 09:06:07;;;;;;;22.98;21.15;;;;;;;;;;5073010;28;20687;-70
2021/04/06 09:08:48;;;;;;;21.83;19.77;;;;;;;;;;5073477;28;20186;-71
2021/04/06 09:11:16;;;;;;;21.20;19.45;;;;;;;;;;5070798;28;20254;-70
2021/04/06 09:13:42;;;;;;;22.15;20.40;;;;;;;;;;5072680;28;20208;-71
2021/04/06 09:16:10;;;;;;;21.77;20.15;;;;;;;;;;5073345;28;20236;-70
2021/04/06 09:18:37;;;;;;;23.40;21.83;;;;;;;;;;5073042;28;20193;-71
2021/04/06 09:21:08;;;;;;;23.20;21.23;;;;;;;;;;5073235;28;20184;-70
2021/04/06 09:23:36;;;;;;;23.05;20.92;;;;;;;;;;5073291;28;20199;-71
2021/04/06 09:26:13;;;;;;;23.10;20.30;;;;;;;;;;5072866;28;20213;-70
2021/04/06 09:28:40;;;;;;;21.05;19.75;;;;;;;;;;5073330;28;20196;-70
2021/04/06 09:31:08;;;;;;;21.80;20.40;;;;;;;;;;5073568;28;20224;-70
2021/04/06 09:33:35;;;;;;;21.50;20.00;;;;;;;;;;5073235;28;20216;-69
2021/04/06 09:36:02;;;;;;;21.67;20.38;;;;;;;;;;5074915;28;20197;-70
2021/04/06 09:38:29;;;;;;;22.38;20.73;;;;;;;;;;5076212;28;20192;-71
2021/04/06 09:40:57;;;;;;;21.30;19.90;;;;;;;;;;5076900;28;20200;-71
2021/04/06 09:43:25;;;;;;;21.67;20.05;;;;;;;;;;5076550;28;20204;-73
2021/04/06 09:45:52;;;;;;;21.92;20.48;;;;;;;;;;5076379;28;20216;-74
2021/04/06 09:48:19;;;;;;;22.15;20.25;;;;;;;;;;5076785;28;20198;-71
2021/04/06 09:50:56;;;;;;;20.23;18.83;;;;;;;;;;5076834;28;20216;-74
2021/04/06 09:53:23;;;;;;;21.25;19.90;;;;;;;;;;5076162;28;20549;-72
2021/04/06 09:55:50;;;;;;;21.60;20.05;;;;;;;;;;5076581;28;20246;-76
2021/04/06 09:58:17;;;;;;;22.27;20.58;;;;;;;;;;5076549;28;20184;-74
2021/04/06 10:00:46;;;;;;;21.15;19.75;;;;;;;;;;5076258;28;20658;-76
2021/04/06 10:03:14;;;;;;;20.73;19.30;;;;;;;;;;5076067;28;20194;-75
2021/04/06 10:05:43;;;;;;;22.40;20.70;;;;;;;;;;5076074;28;20252;-74
2021/04/06 10:08:10;;;;;;;22.85;20.85;;;;;;;;;;5076162;28;20188;-72
2021/04/06 10:10:39;;;;;;;23.75;21.60;;;;;;;;;;5076105;28;20189;-71
2021/04/06 10:13:06;;;;;;;22.92;21.48;;;;;;;;;;5076349;28;20194;-71
2021/04/06 10:15:34;;;;;;;24.50;22.33;;;;;;;;;;5075150;28;20190;-71
2021/04/06 10:18:08;;;;;;;23.35;21.50;;;;;;;;;;5075991;28;20188;-71
2021/04/06 10:20:40;;;;;;;23.90;21.80;;;;;;;;;;5076161;28;20215;-70
2021/04/06 10:23:08;;;;;;;23.08;21.23;;;;;;;;;;5076141;28;20224;-71
2021/04/06 10:25:36;;;;;;;21.77;20.17;;;;;;;;;;5075603;28;20212;-71
2021/04/06 10:28:04;;;;;;;21.75;20.33;;;;;;;;;;5076007;28;20521;-71
2021/04/06 10:30:36;;;;;;;22.05;20.52;;;;;;;;;;5075834;28;20220;-70
2021/04/06 10:33:04;;;;;;;21.00;19.80;;;;;;;;;;5074120;28;20282;-70
2021/04/06 10:35:33;;;;;;;21.52;19.85;;;;;;;;;;5086577;28;20198;-70
2021/04/06 10:38:00;;;;;;;20.80;19.50;;;;;;;;;;5084727;28;20189;-71
2021/04/06 10:40:35;;;;;;;22.33;20.98;;;;;;;;;;5095955;28;20191;-71
2021/04/06 10:43:04;;;;;;;21.13;19.90;;;;;;;;;;5096045;28;20270;-71
2021/04/06 10:45:32;;;;;;;25.48;23.50;;;;;;;;;;5093921;28;20220;-72
2021/04/06 10:48:04;;;;;;;23.55;21.60;;;;;;;;;;5093945;28;20204;-70
2021/04/06 10:50:33;;;;;;;21.83;20.33;;;;;;;;;;5095848;28;20191;-71
2021/04/06 10:53:00;;;;;;;25.23;23.42;;;;;;;;;;5095665;28;20191;-71
2021/04/06 10:55:33;;;;;;;78.32;51.55;;;;;;;;;;5094223;28;20916;-71
2021/04/06 10:58:01;;;;;;;23.30;21.70;;;;;;;;;;5095194;28;20184;-71
2021/04/06 11:00:29;;;;;;;23.40;21.65;;;;;;;;;;5095296;28;20195;-70
2021/04/06 11:03:09;;;;;;;34.50;30.85;;;;;;;;;;5095331;28;20193;-69
2021/04/06 11:05:38;;;;;;;21.95;20.30;;;;;;;;;;5095383;28;20216;-70
2021/04/06 11:08:24;;;;;;;21.20;20.10;;;;;;;;;;5095436;28;20195;-70
2021/04/06 11:10:52;;;;;;;20.90;19.40;;;;;;;;;;5094924;28;20192;-70
2021/04/06 11:13:19;;;;;;;20.00;19.00;;;;;;;;;;5095158;28;20196;-70
2021/04/06 11:15:46;;;;;;;19.95;18.95;;;;;;;;;;5095007;28;20266;-71
2021/04/06 11:18:13;;;;;;;19.95;18.85;;;;;;;;;;5094865;28;20194;-70
2021/04/06 11:20:41;;;;;;;20.85;19.75;;;;;;;;;;5095039;28;20188;-70
2021/04/06 11:23:09;;;;;;;20.40;19.05;;;;;;;;;;5095269;28;20191;-70
2021/04/06 11:25:35;;;;;;;19.50;18.50;;;;;;;;;;5095053;28;20215;-71
2021/04/06 11:28:02;;;;;;;20.10;18.88;;;;;;;;;;5095015;28;20183;-71
2021/04/06 11:30:32;;;;;;;20.33;19.23;;;;;;;;;;5094666;28;20703;-71
2021/04/06 11:33:00;;;;;;;20.08;18.75;;;;;;;;;;5094779;28;20191;-70
2021/04/06 11:35:27;;;;;;;19.65;18.65;;;;;;;;;;5094892;28;20191;-71
2021/04/06 11:37:55;;;;;;;21.23;19.83;;;;;;;;;;5094561;28;20656;-70
2021/04/06 11:40:23;;;;;;;19.02;18.02;;;;;;;;;;5094942;28;20221;-69
2021/04/06 11:42:50;;;;;;;20.90;19.38;;;;;;;;;;5094521;28;20187;-71
2021/04/06 11:45:17;;;;;;;20.70;19.50;;;;;;;;;;5094777;28;20229;-70
2021/04/06 11:47:44;;;;;;;20.58;18.92;;;;;;;;;;5094456;28;20702;-70
2021/04/06 11:50:11;;;;;;;19.60;18.30;;;;;;;;;;5093255;28;20202;-71
2021/04/06 11:52:38;;;;;;;19.55;18.35;;;;;;;;;;5094641;28;20241;-71
2021/04/06 11:55:07;;;;;;;20.67;19.27;;;;;;;;;;5094147;28;20240;-71
2021/04/06 11:57:34;;;;;;;21.33;19.85;;;;;;;;;;5093786;28;20544;-70
2021/04/06 12:00:01;;;;;;;21.67;19.40;;;;;;;;;;5094569;28;20198;-70
2021/04/06 12:02:28;;;;;;;20.67;19.27;;;;;;;;;;5094241;28;20191;-71
2021/04/06 12:04:54;;;;;;;20.02;18.92;;;;;;;;;;5094002;28;20219;-71
2021/04/06 12:07:21;;;;;;;20.05;18.85;;;;;;;;;;5094412;28;20253;-70
2021/04/06 12:09:49;;;;;;;21.23;19.92;;;;;;;;;;5094466;28;20197;-70
2021/04/06 12:12:17;;;;;;;20.20;18.90;;;;;;;;;;5094241;28;20258;-70
2021/04/06 12:14:43;;;;;;;20.65;19.35;;;;;;;;;;5093974;28;20644;-74
2021/04/06 12:17:11;;;;;;;21.65;20.35;;;;;;;;;;5094206;28;20221;-75
2021/04/06 12:19:38;;;;;;;21.15;19.75;;;;;;;;;;5094349;28;20221;-76
2021/04/06 12:22:05;;;;;;;21.02;19.63;;;;;;;;;;5094381;28;20191;-76
2021/04/06 12:24:32;;;;;;;21.88;20.38;;;;;;;;;;5094509;28;20236;-76
2021/04/06 12:26:59;;;;;;;23.40;21.58;;;;;;;;;;5094004;28;20211;-77
2021/04/06 12:29:27;;;;;;;19.92;18.77;;;;;;;;;;5092860;28;20203;-77
2021/04/06 12:31:54;;;;;;;21.23;19.98;;;;;;;;;;5094106;28;20224;-77
2021/04/06 12:34:21;;;;;;;20.35;19.15;;;;;;;;;;5093726;28;20195;-74
2021/04/06 12:36:48;;;;;;;20.63;19.45;;;;;;;;;;5093984;28;20208;-75
2021/04/06 12:39:15;;;;;;;20.27;19.00;;;;;;;;;;5093761;28;20224;-76
2021/04/06 12:41:55;;;;;;;20.45;19.25;;;;;;;;;;5094416;28;20183;-84
2021/04/06 12:44:21;;;;;;;20.08;18.98;;;;;;;;;;5094042;28;20192;-76
2021/04/06 12:46:49;;;;;;;21.08;19.83;;;;;;;;;;5093551;28;20442;-70
2021/04/06 12:49:16;;;;;;;21.42;19.95;;;;;;;;;;5093880;28;20187;-71
2021/04/06 12:51:43;;;;;;;22.13;20.42;;;;;;;;;;5093823;28;20187;-70
2021/04/06 12:54:10;;;;;;;20.90;19.67;;;;;;;;;;5093484;28;20224;-70
2021/04/06 12:56:37;;;;;;;21.52;20.33;;;;;;;;;;5093030;28;20204;-70
2021/04/06 12:59:04;;;;;;;20.80;19.60;;;;;;;;;;5093518;28;20195;-70
2021/04/06 13:01:31;;;;;;;21.55;20.25;;;;;;;;;;5093813;28;20199;-70
2021/04/06 13:03:59;;;;;;;21.63;20.42;;;;;;;;;;5092274;28;20196;-70
2021/04/06 13:06:26;;;;;;;21.25;20.05;;;;;;;;;;5093637;28;20215;-70
2021/04/06 13:08:53;;;;;;;21.65;20.33;;;;;;;;;;5093390;28;20193;-70
2021/04/06 13:11:20;;;;;;;22.25;20.95;;;;;;;;;;5097355;28;20199;-70
2021/04/06 13:13:46;;;;;;;21.70;20.55;;;;;;;;;;5097778;28;20218;-70
2021/04/06 13:16:14;;;;;;;22.00;20.80;;;;;;;;;;5096129;28;20201;-70
2021/04/06 13:18:41;;;;;;;21.35;20.05;;;;;;;;;;5097354;28;20534;-70
2021/04/06 13:21:09;;;;;;;21.83;20.52;;;;;;;;;;5097327;28;20310;-70
2021/04/06 13:23:36;;;;;;;21.10;19.80;;;;;;;;;;5097609;28;20193;-70
2021/04/06 13:26:02;;;;;;;21.17;19.98;;;;;;;;;;5097357;28;20225;-70
2021/04/06 13:28:31;;;;;;;21.13;19.55;;;;;;;;;;5097050;28;20196;-70
2021/04/06 13:30:58;;;;;;;21.05;19.85;;;;;;;;;;5097339;28;20221;-70
2021/04/06 13:33:25;;;;;;;20.83;19.63;;;;;;;;;;5097005;28;20187;-70
2021/04/06 13:35:52;;;;;;;20.42;19.23;;;;;;;;;;5097350;28;20219;-70
2021/04/06 13:38:21;;;;;;;21.20;19.90;;;;;;;;;;5097266;28;20202;-70
2021/04/06 13:40:48;;;;;;;21.38;20.15;;;;;;;;;;5096979;28;20200;-71
2021/04/06 13:43:15;;;;;;;20.70;19.60;;;;;;;;;;5097131;28;20192;-70
2021/04/06 13:45:42;;;;;;;20.27;19.13;;;;;;;;;;5097051;28;20220;-70
2021/04/06 13:48:09;;;;;;;22.15;20.85;;;;;;;;;;5097124;28;20193;-70
2021/04/06 13:50:37;;;;;;;21.88;20.67;;;;;;;;;;5097080;28;20316;-70
2021/04/06 13:53:04;;;;;;;27.65;20.77;;;;;;;;;;5096739;28;20190;-70
2021/04/06 13:55:33;;;;;;;21.17;19.98;;;;;;;;;;5096409;28;20239;-70
2021/04/06 13:58:02;;;;;;;21.00;19.60;;;;;;;;;;5096762;28;20194;-70
2021/04/06 14:00:32;;;;;;;22.25;20.88;;;;;;;;;;5096899;28;20553;-71
2021/04/06 14:02:59;;;;;;;20.83;19.52;;;;;;;;;;5096490;28;20531;-70
2021/04/06 14:05:26;;;;;;;22.85;21.55;;;;;;;;;;5096479;28;20228;-71
2021/04/06 14:07:54;;;;;;;21.40;20.05;;;;;;;;;;5096350;28;20206;-70
2021/04/06 14:10:22;;;;;;;21.25;19.95;;;;;;;;;;5095464;28;20227;-70
2021/04/06 14:12:49;;;;;;;21.60;20.30;;;;;;;;;;5096520;28;20292;-70
2021/04/06 14:15:17;;;;;;;20.05;18.95;;;;;;;;;;5096227;28;20631;-71
2021/04/06 14:17:52;;;;;;;20.65;19.15;;;;;;;;;;5096176;28;20524;-70
2021/04/06 14:20:20;;;;;;;20.05;18.85;;;;;;;;;;5096507;28;20273;-70
2021/04/06 14:22:47;;;;;;;20.85;19.55;;;;;;;;;;5096144;28;20195;-70
2021/04/06 14:25:15;;;;;;;21.05;19.73;;;;;;;;;;5096183;28;20238;-70